createdAt,value
2023-02-21T00:00:13.028Z,4.78
2023-02-21T00:02:59.701Z,4.70
2023-02-21T00:05:45.832Z,4.68
2023-02-21T00:08:32.060Z,4.66
2023-02-21T00:11:18.012Z,4.63
2023-02-21T00:14:03.904Z,4.53
2023-02-21T00:16:49.801Z,4.42
2023-02-21T00:19:36.057Z,4.37
2023-02-21T00:22:21.930Z,4.35
2023-02-21T00:25:07.937Z,4.24
2023-02-21T00:27:53.795Z,4.10
2023-02-21T00:30:39.894Z,4.14
2023-02-21T00:33:44.288Z,4.20
2023-02-21T00:36:36.139Z,4.20
2023-02-21T00:39:22.028Z,4.14
2023-02-21T00:42:08.114Z,4.01
2023-02-21T00:45:12.748Z,4.07
2023-02-21T00:47:58.673Z,4.08
2023-02-21T00:50:44.742Z,4.07
2023-02-21T00:53:30.742Z,4.07
2023-02-21T00:56:16.842Z,4.02
2023-02-21T00:59:02.947Z,4.01
2023-02-21T01:01:49.718Z,4.01
2023-02-21T01:04:36.959Z,4.01
2023-02-21T01:07:23.092Z,4.08
2023-02-21T01:10:09.257Z,4.07
2023-02-21T01:12:58.492Z,4.12
2023-02-21T01:15:44.395Z,4.12
2023-02-21T01:18:30.522Z,4.08
2023-02-21T01:21:16.618Z,4.01
2023-02-21T01:24:02.759Z,4.00
2023-02-21T01:26:48.861Z,3.98
2023-02-21T01:29:36.692Z,3.96
2023-02-21T01:32:22.753Z,3.86
2023-02-21T01:35:09.070Z,3.77
2023-02-21T01:37:54.949Z,3.77
2023-02-21T01:40:40.900Z,3.79
2023-02-21T01:43:43.775Z,3.76
2023-02-21T01:46:34.831Z,3.76
2023-02-21T01:49:35.977Z,3.71
2023-02-21T01:52:23.586Z,3.64
2023-02-21T01:55:15.168Z,3.64
2023-02-21T01:58:04.709Z,3.55
2023-02-21T02:00:50.669Z,3.67
2023-02-21T02:03:39.249Z,3.71
2023-02-21T02:06:32.447Z,3.72
2023-02-21T02:09:40.001Z,3.77
2023-02-21T02:12:53.731Z,3.80
2023-02-21T02:15:47.183Z,3.72
2023-02-21T02:18:45.774Z,3.72
2023-02-21T02:21:54.210Z,3.69
2023-02-21T02:25:09.182Z,3.64
2023-02-21T02:28:00.824Z,3.78
2023-02-21T02:31:15.542Z,3.74
2023-02-21T02:34:27.548Z,3.62
2023-02-21T02:37:21.720Z,3.60
2023-02-21T02:40:21.080Z,3.66
2023-02-21T02:43:24.441Z,3.65
2023-02-21T02:46:20.895Z,3.62
2023-02-21T02:49:02.733Z,3.65
2023-02-21T02:51:34.698Z,3.61
2023-02-21T02:54:04.955Z,3.66
2023-02-21T02:56:33.719Z,3.76
2023-02-21T02:59:12.335Z,3.88
2023-02-21T03:01:51.645Z,3.92
2023-02-21T03:04:42.612Z,4.01
2023-02-21T03:07:45.607Z,4.03
2023-02-21T03:10:26.360Z,4.06
2023-02-21T03:13:21.770Z,4.09
2023-02-21T03:16:15.614Z,4.11
2023-02-21T03:19:08.826Z,4.16
2023-02-21T03:21:46.876Z,4.16
2023-02-21T03:24:17.797Z,4.15
2023-02-21T03:26:52.109Z,4.12
2023-02-21T03:29:43.296Z,4.08
2023-02-21T03:32:38.996Z,4.06
2023-02-21T03:35:07.896Z,4.01
2023-02-21T03:37:44.216Z,3.92
2023-02-21T03:40:26.554Z,3.86
2023-02-21T03:42:57.134Z,3.86
2023-02-21T03:45:25.781Z,3.74
2023-02-21T03:48:31.969Z,3.67
2023-02-21T03:51:17.888Z,3.66
2023-02-21T03:53:45.967Z,3.61
2023-02-21T03:56:13.925Z,3.54
2023-02-21T03:58:57.235Z,3.45
2023-02-21T04:01:24.525Z,3.45
2023-02-21T04:03:53.440Z,3.34
2023-02-21T04:06:21.673Z,3.34
2023-02-21T04:08:51.995Z,3.30
2023-02-21T04:11:23.590Z,3.32
2023-02-21T04:13:52.906Z,3.34
2023-02-21T04:16:20.251Z,3.34
2023-02-21T04:18:48.551Z,3.30
2023-02-21T04:21:18.792Z,3.28
2023-02-21T04:23:46.488Z,3.17
2023-02-21T04:26:13.640Z,3.07
2023-02-21T04:28:48.926Z,3.07
2023-02-21T04:31:18.821Z,3.15
2023-02-21T04:33:46.750Z,3.16
2023-02-21T04:36:21.446Z,3.24
2023-02-21T04:38:50.405Z,3.16
2023-02-21T04:41:18.809Z,3.12
2023-02-21T04:43:46.725Z,3.06
2023-02-21T04:46:17.377Z,2.98
2023-02-21T04:48:47.745Z,2.95
2023-02-21T04:51:19.308Z,2.97
2023-02-21T04:53:51.055Z,2.96
2023-02-21T04:56:26.008Z,2.93
2023-02-21T04:58:53.352Z,2.92
2023-02-21T05:01:21.649Z,2.93
2023-02-21T05:03:49.554Z,2.85
2023-02-21T05:06:23.250Z,2.80
2023-02-21T05:08:53.164Z,2.78
2023-02-21T05:11:22.804Z,2.82
2023-02-21T05:13:50.519Z,2.79
2023-02-21T05:16:19.554Z,2.74
2023-02-21T05:18:49.121Z,2.76
2023-02-21T05:21:18.851Z,2.73
2023-02-21T05:23:56.009Z,2.71
2023-02-21T05:26:32.874Z,2.63
2023-02-21T05:29:00.213Z,2.59
2023-02-21T05:31:27.566Z,2.58
2023-02-21T05:33:54.941Z,2.72
2023-02-21T05:36:25.276Z,2.76
2023-02-21T05:38:55.808Z,2.86
2023-02-21T05:41:23.895Z,2.89
2023-02-21T05:43:51.487Z,2.89
2023-02-21T05:46:36.600Z,2.86
2023-02-21T05:49:05.799Z,2.90
2023-02-21T05:51:42.685Z,2.93
2023-02-21T05:54:19.063Z,2.98
2023-02-21T05:56:49.588Z,2.86
2023-02-21T05:59:20.494Z,2.82
2023-02-21T06:01:49.887Z,2.78
2023-02-21T06:04:17.756Z,2.70
2023-02-21T06:06:45.196Z,2.69
2023-02-21T06:09:12.886Z,2.70
2023-02-21T06:11:40.622Z,2.72
2023-02-21T06:14:21.317Z,2.77
2023-02-21T06:16:48.385Z,2.74
2023-02-21T06:19:17.309Z,2.78
2023-02-21T06:21:45.702Z,2.85
2023-02-21T06:24:13.488Z,2.85
2023-02-21T06:26:44.911Z,2.78
2023-02-21T06:29:13.178Z,2.65
2023-02-21T06:31:40.451Z,2.63
2023-02-21T06:34:07.920Z,2.67
2023-02-21T06:36:35.719Z,2.72
2023-02-21T06:39:03.037Z,2.79
2023-02-21T06:41:31.676Z,2.90
2023-02-21T06:43:59.581Z,2.99
2023-02-21T06:46:30.282Z,3.01
2023-02-21T06:48:58.780Z,2.89
2023-02-21T06:51:29.483Z,2.83
2023-02-21T06:53:58.411Z,2.82
2023-02-21T06:56:27.146Z,2.87
2023-02-21T06:58:54.984Z,2.87
2023-02-21T07:01:23.060Z,2.94
2023-02-21T07:03:50.275Z,2.99
2023-02-21T07:06:18.537Z,3.04
2023-02-21T07:08:45.814Z,3.05
2023-02-21T07:11:14.068Z,3.06
2023-02-21T07:13:41.828Z,3.08
2023-02-21T07:16:09.008Z,2.88
2023-02-21T07:18:36.296Z,2.88
2023-02-21T07:21:03.502Z,3.02
2023-02-21T07:23:30.761Z,3.15
2023-02-21T07:25:57.864Z,3.32
2023-02-21T07:28:25.074Z,3.39
2023-02-21T07:30:52.548Z,3.47
2023-02-21T07:33:19.745Z,3.49
2023-02-21T07:35:46.922Z,3.45
2023-02-21T07:38:32.665Z,3.52
2023-02-21T07:41:03.536Z,3.00
2023-02-21T07:43:32.321Z,2.83
2023-02-21T07:46:00.045Z,3.01
2023-02-21T07:48:27.328Z,3.11
2023-02-21T07:50:54.527Z,3.03
2023-02-21T07:53:21.712Z,3.11
2023-02-21T07:55:48.967Z,3.23
2023-02-21T07:58:16.390Z,3.47
2023-02-21T08:00:43.650Z,3.41
2023-02-21T08:03:14.199Z,3.64
2023-02-21T08:05:41.712Z,3.44
2023-02-21T08:08:10.330Z,3.60
2023-02-21T08:10:37.802Z,3.49
2023-02-21T08:13:05.752Z,3.72
2023-02-21T08:15:33.183Z,3.91
2023-02-21T08:18:00.465Z,3.79
2023-02-21T08:20:27.762Z,3.99
2023-02-21T08:22:55.017Z,3.89
2023-02-21T08:25:22.139Z,3.92
2023-02-21T08:27:53.594Z,3.93
2023-02-21T08:30:21.341Z,4.11
2023-02-21T08:32:48.655Z,4.24
2023-02-21T08:35:18.669Z,4.33
2023-02-21T08:37:50.513Z,4.17
2023-02-21T08:40:20.950Z,4.24
2023-02-21T08:42:53.680Z,4.42
2023-02-21T08:45:24.014Z,4.34
2023-02-21T08:47:54.353Z,4.58
2023-02-21T08:50:25.353Z,4.85
2023-02-21T08:52:53.173Z,5.12
2023-02-21T08:55:21.548Z,5.24
2023-02-21T08:57:52.333Z,5.20
2023-02-21T09:00:23.892Z,5.28
2023-02-21T09:02:52.604Z,5.37
2023-02-21T09:05:27.081Z,5.50
2023-02-21T09:07:59.206Z,5.41
2023-02-21T09:10:33.883Z,5.53
2023-02-21T09:13:02.914Z,5.68
2023-02-21T09:15:30.431Z,5.87
2023-02-21T09:17:57.640Z,5.81
2023-02-21T09:20:27.119Z,6.40
2023-02-21T09:22:54.890Z,6.11
2023-02-21T09:25:25.241Z,6.11
2023-02-21T09:27:54.771Z,6.32
2023-02-21T09:30:26.796Z,6.58
2023-02-21T09:32:55.180Z,6.85
2023-02-21T09:35:23.161Z,7.14
2023-02-21T09:37:50.403Z,7.35
2023-02-21T09:40:45.698Z,7.51
2023-02-21T09:43:43.431Z,7.66
2023-02-21T09:46:32.089Z,7.93
2023-02-21T09:49:01.473Z,7.81
2023-02-21T09:51:30.789Z,8.03
2023-02-21T09:54:01.298Z,7.80
2023-02-21T09:56:39.878Z,8.08
2023-02-21T09:59:17.364Z,8.46
2023-02-21T10:02:18.757Z,8.58
2023-02-21T10:05:03.109Z,8.69
2023-02-21T10:07:54.183Z,8.85
2023-02-21T10:10:44.111Z,9.05
2023-02-21T10:13:53.169Z,8.62
2023-02-21T10:16:35.486Z,8.58
2023-02-21T10:19:25.057Z,8.76
2023-02-21T10:21:54.528Z,9.02
2023-02-21T10:24:26.163Z,9.07
2023-02-21T10:27:02.202Z,9.32
2023-02-21T10:29:57.631Z,9.57
2023-02-21T10:32:26.088Z,9.58
2023-02-21T10:34:58.642Z,9.14
2023-02-21T10:37:47.702Z,9.40
2023-02-21T10:40:39.780Z,9.62
2023-02-21T10:43:32.727Z,9.19
2023-02-21T10:46:35.664Z,9.94
2023-02-21T10:49:28.955Z,9.90
2023-02-21T10:52:17.928Z,11.09
2023-02-21T10:55:20.038Z,12.19
2023-02-21T10:57:57.923Z,12.41
2023-02-21T11:00:42.093Z,11.42
2023-02-21T11:03:18.266Z,13.51
2023-02-21T11:05:52.204Z,14.74
2023-02-21T11:08:55.056Z,12.28
2023-02-21T11:11:42.185Z,15.57
2023-02-21T11:14:18.428Z,15.28
2023-02-21T11:16:45.695Z,17.98
2023-02-21T11:19:14.998Z,15.69
2023-02-21T11:21:45.260Z,16.39
2023-02-21T11:24:12.949Z,15.34
2023-02-21T11:26:53.284Z,17.08
2023-02-21T11:29:25.766Z,17.73
2023-02-21T11:31:56.761Z,17.18
2023-02-21T11:34:30.244Z,15.68
2023-02-21T11:37:04.648Z,18.12
2023-02-21T11:39:35.482Z,16.82
2023-02-21T11:42:30.042Z,17.37
2023-02-21T11:45:30.034Z,15.31
2023-02-21T11:48:06.383Z,14.46
2023-02-21T11:50:49.215Z,13.57
2023-02-21T11:53:23.992Z,13.71
2023-02-21T11:56:24.284Z,14.01
2023-02-21T11:59:08.857Z,13.92
2023-02-21T12:02:26.461Z,13.94
2023-02-21T12:05:53.122Z,13.87
2023-02-21T12:08:44.368Z,13.98
2023-02-21T12:11:46.584Z,14.23
2023-02-21T12:14:54.933Z,13.88
2023-02-21T12:17:54.838Z,13.92
2023-02-21T12:21:36.020Z,13.96
2023-02-21T12:24:32.108Z,13.70
2023-02-21T12:27:45.707Z,14.03
2023-02-21T12:30:59.756Z,14.30
2023-02-21T12:34:05.513Z,13.96
2023-02-21T12:36:57.002Z,13.97
2023-02-21T12:40:10.451Z,14.09
2023-02-21T12:43:11.789Z,14.12
2023-02-21T12:45:53.687Z,13.97
2023-02-21T12:48:50.379Z,14.22
2023-02-21T12:51:31.975Z,14.39
2023-02-21T12:54:19.695Z,14.00
2023-02-21T12:57:06.825Z,14.26
2023-02-21T13:00:18.130Z,14.47
2023-02-21T13:03:18.700Z,14.82
2023-02-21T13:06:00.369Z,14.48
2023-02-21T13:08:58.395Z,14.26
2023-02-21T13:11:50.008Z,14.66
2023-02-21T13:15:09.139Z,14.66
2023-02-21T13:17:36.563Z,14.68
2023-02-21T13:20:18.688Z,14.58
2023-02-21T13:23:08.586Z,14.38
2023-02-21T13:26:00.674Z,14.33
2023-02-21T13:28:36.589Z,14.06
2023-02-21T13:31:11.216Z,14.34
2023-02-21T13:33:57.866Z,14.02
2023-02-21T13:36:39.000Z,14.08
2023-02-21T13:39:36.472Z,13.71
2023-02-21T13:42:25.362Z,14.26
2023-02-21T13:45:14.315Z,14.48
2023-02-21T13:48:00.191Z,14.73
2023-02-21T13:50:39.763Z,14.47
2023-02-21T13:53:22.663Z,14.26
2023-02-21T13:56:07.854Z,14.75
2023-02-21T13:58:49.486Z,14.97
2023-02-21T14:01:25.918Z,14.64
2023-02-21T14:03:59.096Z,14.32
2023-02-21T14:06:37.671Z,14.30
2023-02-21T14:09:25.900Z,14.49
2023-02-21T14:11:55.091Z,14.80
2023-02-21T14:14:36.119Z,14.56
2023-02-21T14:17:12.916Z,14.69
2023-02-21T14:19:52.474Z,14.42
2023-02-21T14:22:30.914Z,14.73
2023-02-21T14:25:22.585Z,14.46
2023-02-21T14:27:53.842Z,14.53
2023-02-21T14:30:39.724Z,14.54
2023-02-21T14:33:26.235Z,14.55
2023-02-21T14:36:03.911Z,14.63
2023-02-21T14:38:40.750Z,14.59
2023-02-21T14:41:35.490Z,14.75
2023-02-21T14:44:45.341Z,14.91
2023-02-21T14:47:56.167Z,15.04
2023-02-21T14:51:09.492Z,14.87
2023-02-21T14:54:06.546Z,14.28
2023-02-21T14:57:13.783Z,14.37
2023-02-21T15:00:45.514Z,13.96
2023-02-21T15:03:29.420Z,13.80
2023-02-21T15:06:19.119Z,13.87
2023-02-21T15:08:50.402Z,13.68
2023-02-21T15:11:39.349Z,13.59
2023-02-21T15:14:30.719Z,13.64
2023-02-21T15:17:12.264Z,13.61
2023-02-21T15:19:39.989Z,13.69
2023-02-21T15:22:25.564Z,13.67
2023-02-21T15:25:08.076Z,13.60
2023-02-21T15:27:59.366Z,13.76
2023-02-21T15:30:41.230Z,13.78
2023-02-21T15:33:18.246Z,13.66
2023-02-21T15:36:07.424Z,13.71
2023-02-21T15:38:46.554Z,13.41
2023-02-21T15:41:40.607Z,13.32
2023-02-21T15:44:24.991Z,13.08
2023-02-21T15:47:04.770Z,13.15
2023-02-21T15:50:00.078Z,13.16
2023-02-21T15:52:46.295Z,13.50
2023-02-21T15:55:20.683Z,14.42
2023-02-21T15:58:16.968Z,14.68
2023-02-21T16:01:07.550Z,14.66
2023-02-21T16:03:46.873Z,13.95
2023-02-21T16:06:28.570Z,13.40
2023-02-21T16:09:24.200Z,13.49
2023-02-21T16:12:11.477Z,13.69
2023-02-21T16:15:01.257Z,12.82
2023-02-21T16:17:37.696Z,13.16
2023-02-21T16:20:35.412Z,13.10
2023-02-21T16:23:27.817Z,13.16
2023-02-21T16:26:09.191Z,12.73
2023-02-21T16:28:39.736Z,12.96
2023-02-21T16:31:15.648Z,12.77
2023-02-21T16:33:43.666Z,12.66
2023-02-21T16:36:32.432Z,12.45
2023-02-21T16:39:00.017Z,12.43
2023-02-21T16:41:27.701Z,12.26
2023-02-21T16:43:55.039Z,12.09
2023-02-21T16:46:30.125Z,11.98
2023-02-21T16:48:59.771Z,11.88
2023-02-21T16:51:33.438Z,11.84
2023-02-21T16:54:01.775Z,11.81
2023-02-21T16:56:29.490Z,11.80
2023-02-21T16:58:57.249Z,11.72
2023-02-21T17:01:34.699Z,11.58
2023-02-21T17:04:05.072Z,11.51
2023-02-21T17:06:33.632Z,11.35
2023-02-21T17:09:01.007Z,11.23
2023-02-21T17:11:28.328Z,11.21
2023-02-21T17:13:55.608Z,11.06
2023-02-21T17:16:23.119Z,10.89
2023-02-21T17:18:50.461Z,10.73
2023-02-21T17:21:17.991Z,10.58
2023-02-21T17:23:45.396Z,10.51
2023-02-21T17:26:13.097Z,10.55
2023-02-21T17:28:40.389Z,10.54
2023-02-21T17:31:07.669Z,10.51
2023-02-21T17:33:35.644Z,10.53
2023-02-21T17:36:03.116Z,10.57
2023-02-21T17:38:30.371Z,10.53
2023-02-21T17:40:58.143Z,10.43
2023-02-21T17:43:25.501Z,10.27
2023-02-21T17:45:52.763Z,10.03
2023-02-21T17:48:19.977Z,9.83
2023-02-21T17:50:47.224Z,9.67
2023-02-21T17:53:14.558Z,9.52
2023-02-21T17:55:42.068Z,9.41
2023-02-21T17:58:09.762Z,9.38
2023-02-21T18:00:37.151Z,9.30
2023-02-21T18:03:06.891Z,9.32
2023-02-21T18:05:35.578Z,9.21
2023-02-21T18:08:04.255Z,9.12
2023-02-21T18:10:32.406Z,9.07
2023-02-21T18:12:59.590Z,9.07
2023-02-21T18:15:28.089Z,9.04
2023-02-21T18:17:56.231Z,8.98
2023-02-21T18:20:24.805Z,9.01
2023-02-21T18:22:52.009Z,8.99
2023-02-21T18:25:21.408Z,8.88
2023-02-21T18:27:48.815Z,8.81
2023-02-21T18:30:19.130Z,9.01
2023-02-21T18:32:46.953Z,8.95
2023-02-21T18:35:16.393Z,8.83
2023-02-21T18:37:47.031Z,8.78
2023-02-21T18:40:16.807Z,8.74
2023-02-21T18:42:45.141Z,8.72
2023-02-21T18:45:12.645Z,8.71
2023-02-21T18:47:40.427Z,8.72
2023-02-21T18:50:08.120Z,8.80
2023-02-21T18:52:35.391Z,8.84
2023-02-21T18:55:03.966Z,8.81
2023-02-21T18:57:32.153Z,8.79
2023-02-21T18:59:59.569Z,8.90
2023-02-21T19:02:26.994Z,9.14
2023-02-21T19:04:54.324Z,9.32
2023-02-21T19:07:21.592Z,9.42
2023-02-21T19:09:50.289Z,9.58
2023-02-21T19:12:18.349Z,9.70
2023-02-21T19:14:45.803Z,9.64
2023-02-21T19:17:13.006Z,9.60
2023-02-21T19:19:40.278Z,9.61
2023-02-21T19:22:07.914Z,9.56
2023-02-21T19:24:35.092Z,9.46
2023-02-21T19:27:03.137Z,9.35
2023-02-21T19:29:30.496Z,9.26
2023-02-21T19:31:58.116Z,9.21
2023-02-21T19:34:25.499Z,9.20
2023-02-21T19:36:53.871Z,9.19
2023-02-21T19:39:20.912Z,9.20
2023-02-21T19:41:48.305Z,9.19
2023-02-21T19:44:16.040Z,9.22
2023-02-21T19:46:43.726Z,9.28
2023-02-21T19:49:18.481Z,9.34
2023-02-21T19:51:50.420Z,9.35
2023-02-21T19:54:22.799Z,9.33
2023-02-21T19:56:50.980Z,9.30
2023-02-21T19:59:18.971Z,9.31
2023-02-21T20:01:46.219Z,9.26
2023-02-21T20:04:13.957Z,9.27
2023-02-21T20:06:41.186Z,9.28
2023-02-21T20:09:10.177Z,9.25
2023-02-21T20:11:40.427Z,9.22
2023-02-21T20:14:09.814Z,9.27
2023-02-21T20:16:44.237Z,9.31
2023-02-21T20:19:12.998Z,9.34
2023-02-21T20:21:40.890Z,9.34
2023-02-21T20:24:08.456Z,9.38
2023-02-21T20:26:35.964Z,9.41
2023-02-21T20:29:05.272Z,9.45
2023-02-21T20:31:35.786Z,9.49
2023-02-21T20:34:05.531Z,9.51
2023-02-21T20:36:40.791Z,9.50
2023-02-21T20:39:23.475Z,9.53
2023-02-21T20:41:50.688Z,9.51
2023-02-21T20:44:18.053Z,9.56
2023-02-21T20:46:45.392Z,9.68
2023-02-21T20:49:15.485Z,9.70
2023-02-21T20:51:43.907Z,9.66
2023-02-21T20:54:19.991Z,9.60
2023-02-21T20:56:55.109Z,9.47
2023-02-21T20:59:32.719Z,9.46
2023-02-21T21:02:01.241Z,9.40
2023-02-21T21:04:39.065Z,9.41
2023-02-21T21:07:22.325Z,9.39
2023-02-21T21:09:50.510Z,9.41
2023-02-21T21:12:22.242Z,9.41
2023-02-21T21:14:53.121Z,9.38
2023-02-21T21:17:21.872Z,9.35
2023-02-21T21:19:50.657Z,9.35
2023-02-21T21:22:23.521Z,9.39
2023-02-21T21:24:52.167Z,9.40
2023-02-21T21:27:21.602Z,9.34
2023-02-21T21:29:49.600Z,9.30
2023-02-21T21:32:22.468Z,9.29
2023-02-21T21:34:54.550Z,9.27
2023-02-21T21:37:28.485Z,9.29
2023-02-21T21:39:56.740Z,9.41
2023-02-21T21:42:28.424Z,9.50
2023-02-21T21:44:57.291Z,9.53
2023-02-21T21:47:31.816Z,9.46
2023-02-21T21:50:02.249Z,9.44
2023-02-21T21:52:29.873Z,9.45
2023-02-21T21:54:57.782Z,9.47
2023-02-21T21:57:28.105Z,9.45
2023-02-21T21:59:55.488Z,9.45
2023-02-21T22:02:22.636Z,9.44
2023-02-21T22:04:53.112Z,9.41
2023-02-21T22:07:20.593Z,9.38
2023-02-21T22:09:47.848Z,9.36
2023-02-21T22:12:18.853Z,9.34
2023-02-21T22:14:46.018Z,9.33
2023-02-21T22:17:13.256Z,9.32
2023-02-21T22:19:40.462Z,9.29
2023-02-21T22:22:08.185Z,9.28
2023-02-21T22:24:35.919Z,9.29
2023-02-21T22:27:03.338Z,9.34
2023-02-21T22:29:31.905Z,9.31
2023-02-21T22:31:59.176Z,9.29
2023-02-21T22:34:26.392Z,9.30
2023-02-21T22:36:58.520Z,9.32
2023-02-21T22:39:27.243Z,9.29
2023-02-21T22:41:54.770Z,9.29
2023-02-21T22:44:24.730Z,9.27
2023-02-21T22:46:58.243Z,9.26
2023-02-21T22:49:29.034Z,9.22
2023-02-21T22:51:59.661Z,9.22
2023-02-21T22:54:26.983Z,9.29
2023-02-21T22:57:04.647Z,9.35
2023-02-21T22:59:35.276Z,9.42
2023-02-21T23:02:03.496Z,9.49
2023-02-21T23:04:36.054Z,9.55
2023-02-21T23:07:05.276Z,9.63
2023-02-21T23:09:36.866Z,9.63
2023-02-21T23:12:05.802Z,9.66
2023-02-21T23:14:34.966Z,9.65
2023-02-21T23:17:02.530Z,9.64
2023-02-21T23:19:32.024Z,9.62
2023-02-21T23:22:03.709Z,9.69
2023-02-21T23:24:30.856Z,9.73
2023-02-21T23:26:58.075Z,9.77
2023-02-21T23:29:26.224Z,9.83
2023-02-21T23:32:09.009Z,9.78
2023-02-21T23:34:40.327Z,9.76
2023-02-21T23:37:12.110Z,9.74
2023-02-21T23:39:41.582Z,9.71
2023-02-21T23:42:10.802Z,9.63
2023-02-21T23:44:38.125Z,9.43
2023-02-21T23:47:06.155Z,9.34
2023-02-21T23:49:33.531Z,9.26
2023-02-21T23:52:01.708Z,9.20
2023-02-21T23:54:29.146Z,9.17
2023-02-21T23:57:00.358Z,9.13
2023-02-21T23:59:29.732Z,9.10
